sensor_id;sensor_type;location;lat;lon;timestamp;pressure;altitude;pressure_sealevel;temperature;humidity
49451;BME280;35336;48.400;10.886;2023-02-21T00:00:13;96726.25;;;6.54;67.75
49451;BME280;35336;48.400;10.886;2023-02-21T00:00:29;96732.22;;;6.56;67.60
49451;BME280;35336;48.400;10.886;2023-02-21T00:00:44;96715.44;;;6.47;67.70
49451;BME280;35336;48.400;10.886;2023-02-21T00:00:59;96714.94;;;6.44;67.91
49451;BME280;35336;48.400;10.886;2023-02-21T00:01:15;96734.88;;;6.56;67.66
49451;BME280;35336;48.400;10.886;2023-02-21T00:01:30;96713.94;;;6.45;67.86
49451;BME280;35336;48.400;10.886;2023-02-21T00:01:46;96728.53;;;6.57;67.83
49451;BME280;35336;48.400;10.886;2023-02-21T00:02:01;96718.09;;;6.47;67.99
49451;BME280;35336;48.400;10.886;2023-02-21T00:02:16;96732.22;;;6.56;67.57
49451;BME280;35336;48.400;10.886;2023-02-21T00:02:32;96728.72;;;6.56;67.95
49451;BME280;35336;48.400;10.886;2023-02-21T00:02:48;96722.44;;;6.57;67.92
49451;BME280;35336;48.400;10.886;2023-02-21T00:03:03;96727.72;;;6.57;67.60
49451;BME280;35336;48.400;10.886;2023-02-21T00:03:18;96728.72;;;6.56;67.60
49451;BME280;35336;48.400;10.886;2023-02-21T00:03:34;96731.53;;;6.54;67.75
49451;BME280;35336;48.400;10.886;2023-02-21T00:03:49;96731.53;;;6.54;67.61
49451;BME280;35336;48.400;10.886;2023-02-21T00:04:04;96727.22;;;6.53;67.66
49451;BME280;35336;48.400;10.886;2023-02-21T00:04:19;96712.28;;;6.44;67.61
49451;BME280;35336;48.400;10.886;2023-02-21T00:04:35;96716.94;;;6.42;67.70
49451;BME280;35336;48.400;10.886;2023-02-21T00:04:50;96730.84;;;6.52;67.91
49451;BME280;35336;48.400;10.886;2023-02-21T00:05:05;96702.00;;;6.32;67.54
49451;BME280;35336;48.400;10.886;2023-02-21T00:05:21;96731.53;;;6.54;67.76
49451;BME280;35336;48.400;10.886;2023-02-21T00:05:36;96733.19;;;6.55;67.65
49451;BME280;35336;48.400;10.886;2023-02-21T00:05:51;96734.19;;;6.54;67.59
49451;BME280;35336;48.400;10.886;2023-02-21T00:06:07;96731.38;;;6.56;67.32
49451;BME280;35336;48.400;10.886;2023-02-21T00:06:23;96726.06;;;6.56;67.73
49451;BME280;35336;48.400;10.886;2023-02-21T00:06:38;96734.00;;;6.56;67.58
49451;BME280;35336;48.400;10.886;2023-02-21T00:06:54;96730.56;;;6.55;67.63
49451;BME280;35336;48.400;10.886;2023-02-21T00:07:09;96731.53;;;6.54;67.51
49451;BME280;35336;48.400;10.886;2023-02-21T00:07:24;96710.31;;;6.46;67.78
49451;BME280;35336;48.400;10.886;2023-02-21T00:07:39;96729.69;;;6.55;67.66
49451;BME280;35336;48.400;10.886;2023-02-21T00:07:55;96726.25;;;6.54;67.41
49451;BME280;35336;48.400;10.886;2023-02-21T00:08:10;96733.50;;;6.52;67.56
49451;BME280;35336;48.400;10.886;2023-02-21T00:08:25;96724.72;;;6.43;67.58
49451;BME280;35336;48.400;10.886;2023-02-21T00:08:40;96732.53;;;6.53;67.56
49451;BME280;35336;48.400;10.886;2023-02-21T00:08:56;96715.63;;;6.46;67.56
49451;BME280;35336;48.400;10.886;2023-02-21T00:09:11;96725.38;;;6.54;67.50
49451;BME280;35336;48.400;10.886;2023-02-21T00:09:26;96698.38;;;6.33;67.52
49451;BME280;35336;48.400;10.886;2023-02-21T00:09:41;96731.72;;;6.53;67.77
49451;BME280;35336;48.400;10.886;2023-02-21T00:09:57;96721.94;;;6.53;67.68
49451;BME280;35336;48.400;10.886;2023-02-21T00:10:13;96720.44;;;6.50;67.51
49451;BME280;35336;48.400;10.886;2023-02-21T00:10:29;96722.22;;;6.50;67.38
49451;BME280;35336;48.400;10.886;2023-02-21T00:10:44;96720.91;;;6.46;67.33
49451;BME280;35336;48.400;10.886;2023-02-21T00:11:00;96724.75;;;6.51;67.53
49451;BME280;35336;48.400;10.886;2023-02-21T00:11:15;96723.25;;;6.49;67.62
49451;BME280;35336;48.400;10.886;2023-02-21T00:11:31;96721.63;;;6.56;67.79
49451;BME280;35336;48.400;10.886;2023-02-21T00:11:46;96729.38;;;6.58;67.87
49451;BME280;35336;48.400;10.886;2023-02-21T00:12:01;96690.09;;;6.36;67.55
49451;BME280;35336;48.400;10.886;2023-02-21T00:12:16;96727.72;;;6.57;67.71
49451;BME280;35336;48.400;10.886;2023-02-21T00:12:32;96723.41;;;6.56;67.61
49451;BME280;35336;48.400;10.886;2023-02-21T00:12:47;96723.41;;;6.56;67.43
49451;BME280;35336;48.400;10.886;2023-02-21T00:13:02;96726.06;;;6.56;67.62
49451;BME280;35336;48.400;10.886;2023-02-21T00:13:17;96728.03;;;6.54;67.42
49451;BME280;35336;48.400;10.886;2023-02-21T00:13:37;96717.28;;;6.47;67.24
49451;BME280;35336;48.400;10.886;2023-02-21T00:13:52;96729.88;;;6.53;67.71
49451;BME280;35336;48.400;10.886;2023-02-21T00:14:08;96717.28;;;6.47;67.65
49451;BME280;35336;48.400;10.886;2023-02-21T00:14:23;96722.91;;;6.52;67.50
49451;BME280;35336;48.400;10.886;2023-02-21T00:14:38;96711.66;;;6.42;67.56
49451;BME280;35336;48.400;10.886;2023-02-21T00:14:53;96725.72;;;6.50;67.74
49451;BME280;35336;48.400;10.886;2023-02-21T00:15:09;96732.84;;;6.50;67.51
49451;BME280;35336;48.400;10.886;2023-02-21T00:15:25;96727.69;;;6.48;67.44
49451;BME280;35336;48.400;10.886;2023-02-21T00:15:40;96729.38;;;6.49;67.53
49451;BME280;35336;48.400;10.886;2023-02-21T00:15:56;96728.56;;;6.49;67.55
49451;BME280;35336;48.400;10.886;2023-02-21T00:16:15;96689.41;;;6.26;67.46
49451;BME280;35336;48.400;10.886;2023-02-21T00:16:31;96728.56;;;6.49;67.90
49451;BME280;35336;48.400;10.886;2023-02-21T00:16:46;96690.41;;;6.25;67.85
49451;BME280;35336;48.400;10.886;2023-02-21T00:17:01;96701.03;;;6.33;67.77
49451;BME280;35336;48.400;10.886;2023-02-21T00:17:17;96726.22;;;6.46;67.47
49451;BME280;35336;48.400;10.886;2023-02-21T00:17:32;96693.22;;;6.24;67.70
49451;BME280;35336;48.400;10.886;2023-02-21T00:17:47;96726.22;;;6.46;67.72
49451;BME280;35336;48.400;10.886;2023-02-21T00:18:02;96721.72;;;6.46;67.79
49451;BME280;35336;48.400;10.886;2023-02-21T00:18:18;96708.50;;;6.38;67.59
49451;BME280;35336;48.400;10.886;2023-02-21T00:18:34;96692.88;;;6.27;67.76
49451;BME280;35336;48.400;10.886;2023-02-21T00:18:50;96703.00;;;6.31;67.50
49451;BME280;35336;48.400;10.886;2023-02-21T00:19:05;96725.22;;;6.47;68.09
49451;BME280;35336;48.400;10.886;2023-02-21T00:19:21;96727.03;;;6.46;67.62
49451;BME280;35336;48.400;10.886;2023-02-21T00:19:36;96723.56;;;6.46;67.67
49451;BME280;35336;48.400;10.886;2023-02-21T00:19:51;96693.22;;;6.24;67.72
49451;BME280;35336;48.400;10.886;2023-02-21T00:20:07;96705.97;;;6.36;67.61
49451;BME280;35336;48.400;10.886;2023-02-21T00:20:23;96693.03;;;6.25;67.99
49451;BME280;35336;48.400;10.886;2023-02-21T00:20:39;96731.50;;;6.46;68.03
49451;BME280;35336;48.400;10.886;2023-02-21T00:20:54;96709.47;;;6.37;67.48
49451;BME280;35336;48.400;10.886;2023-02-21T00:21:09;96712.25;;;6.35;67.48
49451;BME280;35336;48.400;10.886;2023-02-21T00:21:27;96724.72;;;6.43;67.58
49451;BME280;35336;48.400;10.886;2023-02-21T00:21:43;96726.50;;;6.43;67.85
49451;BME280;35336;48.400;10.886;2023-02-21T00:21:58;96731.81;;;6.43;67.75
49451;BME280;35336;48.400;10.886;2023-02-21T00:22:16;96730.19;;;6.42;67.86
49451;BME280;35336;48.400;10.886;2023-02-21T00:22:31;96697.31;;;6.18;67.76
49451;BME280;35336;48.400;10.886;2023-02-21T00:22:46;96707.28;;;6.24;67.96
49451;BME280;35336;48.400;10.886;2023-02-21T00:23:02;96726.34;;;6.36;67.90
49451;BME280;35336;48.400;10.886;2023-02-21T00:23:17;96708.41;;;6.22;68.18
49451;BME280;35336;48.400;10.886;2023-02-21T00:23:36;96729.81;;;6.36;68.14
49451;BME280;35336;48.400;10.886;2023-02-21T00:23:51;96712.25;;;6.27;68.17
49451;BME280;35336;48.400;10.886;2023-02-21T00:24:07;96708.94;;;6.25;68.13
49451;BME280;35336;48.400;10.886;2023-02-21T00:24:22;96727.16;;;6.36;68.07
49451;BME280;35336;48.400;10.886;2023-02-21T00:24:38;96722.72;;;6.37;68.21
49451;BME280;35336;48.400;10.886;2023-02-21T00:24:53;96719.22;;;6.36;67.91
49451;BME280;35336;48.400;10.886;2023-02-21T00:25:08;96722.72;;;6.37;68.25
49451;BME280;35336;48.400;10.886;2023-02-21T00:25:24;96728.00;;;6.37;67.97
49451;BME280;35336;48.400;10.886;2023-02-21T00:25:39;96690.88;;;6.20;67.81
49451;BME280;35336;48.400;10.886;2023-02-21T00:25:54;96707.28;;;6.24;67.92
49451;BME280;35336;48.400;10.886;2023-02-21T00:26:09;96720.19;;;6.35;67.68
49451;BME280;35336;48.400;10.886;2023-02-21T00:26:25;96723.03;;;6.34;67.77
49451;BME280;35336;48.400;10.886;2023-02-21T00:26:40;96715.88;;;6.26;67.99
49451;BME280;35336;48.400;10.886;2023-02-21T00:26:55;96693.47;;;6.12;67.85
49451;BME280;35336;48.400;10.886;2023-02-21T00:27:11;96724.34;;;6.30;67.98
49451;BME280;35336;48.400;10.886;2023-02-21T00:27:26;96721.84;;;6.28;68.48
49451;BME280;35336;48.400;10.886;2023-02-21T00:27:41;96685.84;;;6.01;68.10
49451;BME280;35336;48.400;10.886;2023-02-21T00:27:59;96708.22;;;6.15;68.05
49451;BME280;35336;48.400;10.886;2023-02-21T00:28:15;96725.13;;;6.22;68.48
49451;BME280;35336;48.400;10.886;2023-02-21T00:28:31;96720.81;;;6.21;68.49
49451;BME280;35336;48.400;10.886;2023-02-21T00:28:47;96724.31;;;6.22;68.41
49451;BME280;35336;48.400;10.886;2023-02-21T00:29:02;96705.75;;;6.13;68.45
49451;BME280;35336;48.400;10.886;2023-02-21T00:29:17;96716.03;;;6.16;68.75
49451;BME280;35336;48.400;10.886;2023-02-21T00:29:33;96722.81;;;6.19;68.55
49451;BME280;35336;48.400;10.886;2023-02-21T00:29:49;96708.19;;;6.07;68.66
49451;BME280;35336;48.400;10.886;2023-02-21T00:30:05;96715.00;;;6.09;68.68
49451;BME280;35336;48.400;10.886;2023-02-21T00:30:21;96719.16;;;6.12;68.83
49451;BME280;35336;48.400;10.886;2023-02-21T00:30:36;96705.69;;;6.05;68.66
49451;BME280;35336;48.400;10.886;2023-02-21T00:30:52;96711.50;;;6.09;68.65
49451;BME280;35336;48.400;10.886;2023-02-21T00:31:07;96713.84;;;6.12;69.28
49451;BME280;35336;48.400;10.886;2023-02-21T00:31:22;96726.91;;;6.13;69.18
49451;BME280;35336;48.400;10.886;2023-02-21T00:31:37;96721.63;;;6.13;69.07
49451;BME280;35336;48.400;10.886;2023-02-21T00:31:53;96707.53;;;6.04;69.22
49451;BME280;35336;48.400;10.886;2023-02-21T00:32:08;96714.16;;;6.09;68.97
49451;BME280;35336;48.400;10.886;2023-02-21T00:32:23;96709.84;;;6.08;69.06
49451;BME280;35336;48.400;10.886;2023-02-21T00:32:38;96682.44;;;5.91;68.99
49451;BME280;35336;48.400;10.886;2023-02-21T00:32:54;96705.03;;;6.03;69.00
49451;BME280;35336;48.400;10.886;2023-02-21T00:33:09;96719.16;;;6.12;68.99
49451;BME280;35336;48.400;10.886;2023-02-21T00:33:24;96714.16;;;6.09;69.19
49451;BME280;35336;48.400;10.886;2023-02-21T00:33:39;96718.63;;;6.08;69.07
49451;BME280;35336;48.400;10.886;2023-02-21T00:33:55;96718.63;;;6.08;69.53
49451;BME280;35336;48.400;10.886;2023-02-21T00:34:10;96716.81;;;6.09;69.41
49451;BME280;35336;48.400;10.886;2023-02-21T00:34:25;96719.44;;;6.09;69.26
49451;BME280;35336;48.400;10.886;2023-02-21T00:34:40;96700.88;;;6.00;69.30
49451;BME280;35336;48.400;10.886;2023-02-21T00:34:56;96690.09;;;5.94;69.42
49451;BME280;35336;48.400;10.886;2023-02-21T00:35:11;96682.63;;;5.89;69.12
49451;BME280;35336;48.400;10.886;2023-02-21T00:35:26;96715.81;;;6.10;69.33
49451;BME280;35336;48.400;10.886;2023-02-21T00:35:42;96707.38;;;6.06;69.34
49451;BME280;35336;48.400;10.886;2023-02-21T00:35:57;96706.16;;;6.00;69.31
49451;BME280;35336;48.400;10.886;2023-02-21T00:36:15;96716.63;;;6.10;69.09
49451;BME280;35336;48.400;10.886;2023-02-21T00:36:31;96707.53;;;6.04;69.21
49451;BME280;35336;48.400;10.886;2023-02-21T00:36:46;96703.38;;;6.02;68.96
49451;BME280;35336;48.400;10.886;2023-02-21T00:37:01;96715.81;;;6.10;68.72
49451;BME280;35336;48.400;10.886;2023-02-21T00:37:17;96711.84;;;6.06;68.76
49451;BME280;35336;48.400;10.886;2023-02-21T00:37:32;96705.88;;;6.03;69.16
49451;BME280;35336;48.400;10.886;2023-02-21T00:37:51;96699.53;;;5.96;69.18
49451;BME280;35336;48.400;10.886;2023-02-21T00:38:06;96711.00;;;6.05;69.16
49451;BME280;35336;48.400;10.886;2023-02-21T00:38:21;96699.69;;;5.95;69.25
49451;BME280;35336;48.400;10.886;2023-02-21T00:38:37;96691.84;;;5.85;69.20
49451;BME280;35336;48.400;10.886;2023-02-21T00:38:52;96710.56;;;5.92;69.68
49451;BME280;35336;48.400;10.886;2023-02-21T00:39:07;96697.00;;;5.86;69.68
49451;BME280;35336;48.400;10.886;2023-02-21T00:39:22;96716.22;;;5.97;69.44
49451;BME280;35336;48.400;10.886;2023-02-21T00:39:38;96708.44;;;5.95;69.82
49451;BME280;35336;48.400;10.886;2023-02-21T00:39:53;96717.06;;;5.97;69.60
49451;BME280;35336;48.400;10.886;2023-02-21T00:40:13;96696.81;;;5.88;69.71
49451;BME280;35336;48.400;10.886;2023-02-21T00:40:28;96700.28;;;5.88;69.30
49451;BME280;35336;48.400;10.886;2023-02-21T00:40:44;96717.06;;;5.97;69.57
49451;BME280;35336;48.400;10.886;2023-02-21T00:40:59;96711.09;;;5.95;69.71
49451;BME280;35336;48.400;10.886;2023-02-21T00:41:14;96706.78;;;5.94;69.41
49451;BME280;35336;48.400;10.886;2023-02-21T00:41:30;96701.44;;;5.86;69.80
49451;BME280;35336;48.400;10.886;2023-02-21T00:41:45;96703.28;;;5.85;69.61
49451;BME280;35336;48.400;10.886;2023-02-21T00:42:00;96712.91;;;5.95;69.77
49451;BME280;35336;48.400;10.886;2023-02-21T00:42:15;96715.69;;;5.93;69.04
49451;BME280;35336;48.400;10.886;2023-02-21T00:42:31;96721.31;;;5.90;69.16
49451;BME280;35336;48.400;10.886;2023-02-21T00:42:46;96704.56;;;5.81;69.71
49451;BME280;35336;48.400;10.886;2023-02-21T00:43:01;96719.97;;;5.86;69.64
49451;BME280;35336;48.400;10.886;2023-02-21T00:43:17;96712.19;;;5.84;69.63
49451;BME280;35336;48.400;10.886;2023-02-21T00:43:34;96715.81;;;5.83;69.76
49451;BME280;35336;48.400;10.886;2023-02-21T00:43:49;96714.16;;;5.82;69.67
49451;BME280;35336;48.400;10.886;2023-02-21T00:44:05;96696.38;;;5.66;69.56
49451;BME280;35336;48.400;10.886;2023-02-21T00:44:20;96715.31;;;5.80;70.02
49451;BME280;35336;48.400;10.886;2023-02-21T00:44:36;96716.28;;;5.79;69.66
49451;BME280;35336;48.400;10.886;2023-02-21T00:44:51;96706.81;;;5.68;70.16
49451;BME280;35336;48.400;10.886;2023-02-21T00:45:07;96718.75;;;5.72;70.01
49451;BME280;35336;48.400;10.886;2023-02-21T00:45:22;96710.25;;;5.60;70.06
49451;BME280;35336;48.400;10.886;2023-02-21T00:45:37;96691.16;;;5.48;70.43
49451;BME280;35336;48.400;10.886;2023-02-21T00:45:52;96717.19;;;5.61;70.25
49451;BME280;35336;48.400;10.886;2023-02-21T00:46:08;96724.44;;;5.59;70.75
49451;BME280;35336;48.400;10.886;2023-02-21T00:46:23;96704.22;;;5.50;71.06
49451;BME280;35336;48.400;10.886;2023-02-21T00:46:38;96713.34;;;5.55;71.10
49451;BME280;35336;48.400;10.886;2023-02-21T00:46:53;96722.44;;;5.53;70.72
49451;BME280;35336;48.400;10.886;2023-02-21T00:47:09;96721.75;;;5.51;70.83
49451;BME280;35336;48.400;10.886;2023-02-21T00:47:24;96718.81;;;5.54;70.89
49451;BME280;35336;48.400;10.886;2023-02-21T00:47:39;96717.16;;;5.53;70.90
49451;BME280;35336;48.400;10.886;2023-02-21T00:47:54;96691.25;;;5.38;70.96
49451;BME280;35336;48.400;10.886;2023-02-21T00:48:10;96720.09;;;5.50;71.00
49451;BME280;35336;48.400;10.886;2023-02-21T00:48:25;96719.56;;;5.46;71.04
49451;BME280;35336;48.400;10.886;2023-02-21T00:48:40;96718.22;;;5.42;71.33
49451;BME280;35336;48.400;10.886;2023-02-21T00:48:55;96718.53;;;5.39;71.39
49451;BME280;35336;48.400;10.886;2023-02-21T00:49:11;96723.00;;;5.38;71.76
49451;BME280;35336;48.400;10.886;2023-02-21T00:49:26;96723.28;;;5.35;72.12
49451;BME280;35336;48.400;10.886;2023-02-21T00:49:41;96719.97;;;5.33;72.20
49451;BME280;35336;48.400;10.886;2023-02-21T00:49:57;96703.38;;;5.23;72.42
49451;BME280;35336;48.400;10.886;2023-02-21T00:50:13;96723.63;;;5.32;72.93
49451;BME280;35336;48.400;10.886;2023-02-21T00:50:28;96720.97;;;5.32;72.86
49451;BME280;35336;48.400;10.886;2023-02-21T00:50:43;96710.97;;;5.26;73.04
49451;BME280;35336;48.400;10.886;2023-02-21T00:50:59;96724.59;;;5.31;72.92
49451;BME280;35336;48.400;10.886;2023-02-21T00:51:15;96718.91;;;5.26;72.80
49451;BME280;35336;48.400;10.886;2023-02-21T00:51:30;96718.63;;;5.29;72.97
49451;BME280;35336;48.400;10.886;2023-02-21T00:51:46;96716.28;;;5.26;73.17
49451;BME280;35336;48.400;10.886;2023-02-21T00:52:01;96702.00;;;5.19;72.98
49451;BME280;35336;48.400;10.886;2023-02-21T00:52:16;96711.97;;;5.25;72.77
49451;BME280;35336;48.400;10.886;2023-02-21T00:52:31;96702.84;;;5.19;73.23
49451;BME280;35336;48.400;10.886;2023-02-21T00:52:47;96724.88;;;5.28;72.97
49451;BME280;35336;48.400;10.886;2023-02-21T00:53:02;96720.59;;;5.27;73.42
49451;BME280;35336;48.400;10.886;2023-02-21T00:53:17;96715.38;;;5.17;73.88
49451;BME280;35336;48.400;10.886;2023-02-21T00:53:32;96724.38;;;5.24;74.00
49451;BME280;35336;48.400;10.886;2023-02-21T00:53:48;96719.38;;;5.21;73.76
49451;BME280;35336;48.400;10.886;2023-02-21T00:54:03;96704.28;;;5.14;74.28
49451;BME280;35336;48.400;10.886;2023-02-21T00:54:18;96719.53;;;5.20;74.07
49451;BME280;35336;48.400;10.886;2023-02-21T00:54:34;96720.84;;;5.16;74.04
49451;BME280;35336;48.400;10.886;2023-02-21T00:54:50;96713.88;;;5.15;74.15
49451;BME280;35336;48.400;10.886;2023-02-21T00:55:05;96720.97;;;5.14;74.52
49451;BME280;35336;48.400;10.886;2023-02-21T00:55:21;96705.06;;;5.06;74.55
49451;BME280;35336;48.400;10.886;2023-02-21T00:55:36;96721.81;;;5.15;74.29
49451;BME280;35336;48.400;10.886;2023-02-21T00:55:51;96699.91;;;5.04;74.16
49451;BME280;35336;48.400;10.886;2023-02-21T00:56:06;96704.91;;;5.07;74.17
49451;BME280;35336;48.400;10.886;2023-02-21T00:56:22;96701.41;;;5.07;73.92
49451;BME280;35336;48.400;10.886;2023-02-21T00:56:37;96714.69;;;5.15;73.89
49451;BME280;35336;48.400;10.886;2023-02-21T00:56:53;96704.91;;;5.07;74.21
49451;BME280;35336;48.400;10.886;2023-02-21T00:57:08;96715.38;;;5.17;73.90
49451;BME280;35336;48.400;10.886;2023-02-21T00:57:23;96710.03;;;5.09;73.55
49451;BME280;35336;48.400;10.886;2023-02-21T00:57:38;96694.50;;;5.06;73.57
49451;BME280;35336;48.400;10.886;2023-02-21T00:57:54;96713.72;;;5.16;73.76
49451;BME280;35336;48.400;10.886;2023-02-21T00:58:09;96706.25;;;5.12;73.80
49451;BME280;35336;48.400;10.886;2023-02-21T00:58:24;96694.94;;;5.01;73.59
49451;BME280;35336;48.400;10.886;2023-02-21T00:58:40;96711.25;;;5.15;73.51
49451;BME280;35336;48.400;10.886;2023-02-21T00:58:57;96703.75;;;5.10;73.62
49451;BME280;35336;48.400;10.886;2023-02-21T00:59:12;96707.63;;;5.16;73.58
49451;BME280;35336;48.400;10.886;2023-02-21T00:59:27;96715.56;;;5.16;73.79
49451;BME280;35336;48.400;10.886;2023-02-21T00:59:43;96676.22;;;4.95;73.80
49451;BME280;35336;48.400;10.886;2023-02-21T00:59:58;96713.03;;;5.14;73.54
49451;BME280;35336;48.400;10.886;2023-02-21T01:00:19;96703.59;;;5.12;73.96
49451;BME280;35336;48.400;10.886;2023-02-21T01:00:34;96697.97;;;5.06;74.05
49451;BME280;35336;48.400;10.886;2023-02-21T01:00:50;96704.44;;;5.12;74.27
49451;BME280;35336;48.400;10.886;2023-02-21T01:01:05;96699.97;;;5.13;74.19
49451;BME280;35336;48.400;10.886;2023-02-21T01:01:20;96704.59;;;5.11;74.49
49451;BME280;35336;48.400;10.886;2023-02-21T01:01:36;96712.22;;;5.14;74.14
49451;BME280;35336;48.400;10.886;2023-02-21T01:01:51;96708.06;;;5.11;74.48
49451;BME280;35336;48.400;10.886;2023-02-21T01:02:07;96711.53;;;5.12;74.08
49451;BME280;35336;48.400;10.886;2023-02-21T01:02:22;96704.75;;;5.09;74.12
49451;BME280;35336;48.400;10.886;2023-02-21T01:02:37;96692.31;;;5.01;74.37
49451;BME280;35336;48.400;10.886;2023-02-21T01:02:53;96711.00;;;5.08;74.47
49451;BME280;35336;48.400;10.886;2023-02-21T01:03:09;96711.84;;;5.08;74.46
49451;BME280;35336;48.400;10.886;2023-02-21T01:03:24;96704.91;;;5.07;74.23
49451;BME280;35336;48.400;10.886;2023-02-21T01:03:40;96703.25;;;5.06;74.44
49451;BME280;35336;48.400;10.886;2023-02-21T01:03:57;96701.41;;;5.07;74.14
49451;BME280;35336;48.400;10.886;2023-02-21T01:04:12;96685.81;;;4.96;74.11
49451;BME280;35336;48.400;10.886;2023-02-21T01:04:28;96704.91;;;5.07;74.37
49451;BME280;35336;48.400;10.886;2023-02-21T01:04:43;96688.00;;;5.00;74.23
49451;BME280;35336;48.400;10.886;2023-02-21T01:04:58;96673.06;;;4.91;74.09
49451;BME280;35336;48.400;10.886;2023-02-21T01:05:14;96697.44;;;5.03;74.13
49451;BME280;35336;48.400;10.886;2023-02-21T01:05:29;96700.75;;;5.05;74.13
49451;BME280;35336;48.400;10.886;2023-02-21T01:05:44;96698.94;;;5.05;74.43
49451;BME280;35336;48.400;10.886;2023-02-21T01:05:59;96676.69;;;4.90;74.26
49451;BME280;35336;48.400;10.886;2023-02-21T01:06:15;96700.75;;;5.05;74.13
49451;BME280;35336;48.400;10.886;2023-02-21T01:06:30;96691.63;;;4.99;74.23
49451;BME280;35336;48.400;10.886;2023-02-21T01:06:45;96697.88;;;4.98;74.16
49451;BME280;35336;48.400;10.886;2023-02-21T01:07:00;96697.59;;;5.01;73.96
49451;BME280;35336;48.400;10.886;2023-02-21T01:07:16;96704.22;;;5.05;73.94
49451;BME280;35336;48.400;10.886;2023-02-21T01:07:31;96696.63;;;5.02;74.19
49451;BME280;35336;48.400;10.886;2023-02-21T01:07:46;96702.25;;;5.07;73.78
49451;BME280;35336;48.400;10.886;2023-02-21T01:08:02;96695.47;;;5.05;73.93
49451;BME280;35336;48.400;10.886;2023-02-21T01:08:17;96689.28;;;4.96;73.98
49451;BME280;35336;48.400;10.886;2023-02-21T01:08:32;96686.50;;;4.98;74.05
49451;BME280;35336;48.400;10.886;2023-02-21T01:08:48;96699.78;;;5.06;74.02
49451;BME280;35336;48.400;10.886;2023-02-21T01:09:03;96703.25;;;5.06;73.97
49451;BME280;35336;48.400;10.886;2023-02-21T01:09:18;96696.09;;;4.99;73.69
49451;BME280;35336;48.400;10.886;2023-02-21T01:09:33;96708.81;;;5.03;73.88
49451;BME280;35336;48.400;10.886;2023-02-21T01:09:49;96701.50;;;4.97;73.78
49451;BME280;35336;48.400;10.886;2023-02-21T01:10:04;96685.13;;;4.93;73.55
49451;BME280;35336;48.400;10.886;2023-02-21T01:10:19;96684.31;;;4.93;73.76
49451;BME280;35336;48.400;10.886;2023-02-21T01:10:35;96688.63;;;4.94;73.75
49451;BME280;35336;48.400;10.886;2023-02-21T01:10:50;96702.44;;;5.06;73.80
49451;BME280;35336;48.400;10.886;2023-02-21T01:11:05;96699.91;;;5.04;73.86
49451;BME280;35336;48.400;10.886;2023-02-21T01:11:21;96695.25;;;4.98;73.39
49451;BME280;35336;48.400;10.886;2023-02-21T01:11:36;96693.47;;;5.07;73.52
49451;BME280;35336;48.400;10.886;2023-02-21T01:11:52;96698.78;;;5.07;73.56
49451;BME280;35336;48.400;10.886;2023-02-21T01:12:07;96699.09;;;5.04;73.49
49451;BME280;35336;48.400;10.886;2023-02-21T01:12:22;96700.88;;;5.03;73.63
49451;BME280;35336;48.400;10.886;2023-02-21T01:12:37;96687.63;;;4.95;73.58
49451;BME280;35336;48.400;10.886;2023-02-21T01:12:53;96699.72;;;4.98;73.92
49451;BME280;35336;48.400;10.886;2023-02-21T01:13:08;96679.94;;;4.84;73.73
49451;BME280;35336;48.400;10.886;2023-02-21T01:13:24;96700.25;;;5.01;73.74
49451;BME280;35336;48.400;10.886;2023-02-21T01:13:39;96701.91;;;5.02;73.48
49451;BME280;35336;48.400;10.886;2023-02-21T01:13:54;96703.69;;;5.02;73.52
49451;BME280;35336;48.400;10.886;2023-02-21T01:14:10;96700.25;;;5.01;73.82
49451;BME280;35336;48.400;10.886;2023-02-21T01:14:25;96697.44;;;5.03;73.80
49451;BME280;35336;48.400;10.886;2023-02-21T01:14:41;96698.56;;;5.00;73.36
49451;BME280;35336;48.400;10.886;2023-02-21T01:14:56;96703.69;;;5.02;73.48
49451;BME280;35336;48.400;10.886;2023-02-21T01:15:11;96699.25;;;5.02;73.45
49451;BME280;35336;48.400;10.886;2023-02-21T01:15:28;96685.97;;;4.94;73.45
49451;BME280;35336;48.400;10.886;2023-02-21T01:15:43;96686.94;;;4.93;73.70
49451;BME280;35336;48.400;10.886;2023-02-21T01:15:58;96698.13;;;5.05;73.34
49451;BME280;35336;48.400;10.886;2023-02-21T01:16:14;96703.25;;;5.06;73.20
49451;BME280;35336;48.400;10.886;2023-02-21T01:16:30;96668.53;;;4.83;73.29
49451;BME280;35336;48.400;10.886;2023-02-21T01:16:46;96698.78;;;5.07;73.52
49451;BME280;35336;48.400;10.886;2023-02-21T01:17:01;96700.59;;;5.06;73.44
49451;BME280;35336;48.400;10.886;2023-02-21T01:17:17;96701.13;;;5.10;73.71
49451;BME280;35336;48.400;10.886;2023-02-21T01:17:32;96687.69;;;5.03;73.65
49451;BME280;35336;48.400;10.886;2023-02-21T01:17:47;96695.16;;;5.08;73.51
49451;BME280;35336;48.400;10.886;2023-02-21T01:18:03;96704.44;;;5.12;72.95
49451;BME280;35336;48.400;10.886;2023-02-21T01:18:18;96696.13;;;5.07;73.11
49451;BME280;35336;48.400;10.886;2023-02-21T01:18:33;96689.34;;;5.04;73.02
49451;BME280;35336;48.400;10.886;2023-02-21T01:18:49;96698.19;;;5.13;72.82
49451;BME280;35336;48.400;10.886;2023-02-21T01:19:04;96687.22;;;5.08;72.82
49451;BME280;35336;48.400;10.886;2023-02-21T01:19:19;96692.38;;;5.09;72.93
49451;BME280;35336;48.400;10.886;2023-02-21T01:19:34;96691.53;;;5.09;72.73
49451;BME280;35336;48.400;10.886;2023-02-21T01:19:50;96671.78;;;4.95;72.21
49451;BME280;35336;48.400;10.886;2023-02-21T01:20:05;96673.81;;;5.01;72.83
49451;BME280;35336;48.400;10.886;2023-02-21T01:20:21;96700.50;;;5.16;72.54
49451;BME280;35336;48.400;10.886;2023-02-21T01:20:36;96705.09;;;5.14;72.51
49451;BME280;35336;48.400;10.886;2023-02-21T01:20:51;96702.63;;;5.13;72.71
49451;BME280;35336;48.400;10.886;2023-02-21T01:21:12;96704.28;;;5.14;72.60
49451;BME280;35336;48.400;10.886;2023-02-21T01:21:27;96698.31;;;5.12;73.00
49451;BME280;35336;48.400;10.886;2023-02-21T01:21:42;96698.19;;;5.13;72.91
49451;BME280;35336;48.400;10.886;2023-02-21T01:21:57;96700.66;;;5.15;72.79
49451;BME280;35336;48.400;10.886;2023-02-21T01:22:13;96695.69;;;5.12;72.95